createdAt,value
2022-12-20T00:01:54.978Z,-1.30
2022-12-20T00:04:23.309Z,-1.32
2022-12-20T00:06:51.693Z,-1.32
2022-12-20T00:09:19.567Z,-1.31
2022-12-20T00:11:47.527Z,-1.32
2022-12-20T00:14:15.661Z,-1.32
2022-12-20T00:16:44.748Z,-1.30
2022-12-20T00:19:12.986Z,-1.30
2022-12-20T00:21:40.915Z,-1.31
2022-12-20T00:24:10.489Z,-1.32
2022-12-20T00:26:38.806Z,-1.34
2022-12-20T00:29:07.326Z,-1.37
2022-12-20T00:31:35.700Z,-1.39
2022-12-20T00:34:03.895Z,-1.42
2022-12-20T00:36:33.353Z,-1.43
2022-12-20T00:39:02.342Z,-1.45
2022-12-20T00:41:33.003Z,-1.47
2022-12-20T00:44:01.788Z,-1.52
2022-12-20T00:46:31.851Z,-1.54
2022-12-20T00:49:00.601Z,-1.53
2022-12-20T00:51:31.533Z,-1.52
2022-12-20T00:53:59.560Z,-1.51
2022-12-20T00:56:27.516Z,-1.51
2022-12-20T00:58:59.091Z,-1.49
2022-12-20T01:01:30.924Z,-1.50
2022-12-20T01:03:59.488Z,-1.51
2022-12-20T01:06:28.012Z,-1.53
2022-12-20T01:08:57.211Z,-1.54
2022-12-20T01:11:36.424Z,-1.55
2022-12-20T01:14:12.849Z,-1.54
2022-12-20T01:16:45.322Z,-1.53
2022-12-20T01:19:17.806Z,-1.52
2022-12-20T01:21:46.300Z,-1.51
2022-12-20T01:24:16.595Z,-1.49
2022-12-20T01:26:46.049Z,-1.44
2022-12-20T01:29:15.338Z,-1.40
2022-12-20T01:31:44.543Z,-1.35
2022-12-20T01:34:12.571Z,-1.31
2022-12-20T01:36:42.279Z,-1.30
2022-12-20T01:39:15.841Z,-1.30
2022-12-20T01:41:45.587Z,-1.31
2022-12-20T01:44:16.441Z,-1.31
2022-12-20T01:46:46.380Z,-1.32
2022-12-20T01:49:32.515Z,-1.33
2022-12-20T01:52:03.208Z,-1.36
2022-12-20T01:54:34.254Z,-1.40
2022-12-20T01:57:07.267Z,-1.43
2022-12-20T01:59:39.727Z,-1.45
2022-12-20T02:02:11.736Z,-1.46
2022-12-20T02:04:40.608Z,-1.47
2022-12-20T02:07:11.319Z,-1.45
2022-12-20T02:09:39.967Z,-1.44
2022-12-20T02:12:15.533Z,-1.44
2022-12-20T02:15:02.614Z,-1.46
2022-12-20T02:17:30.526Z,-1.46
2022-12-20T02:20:11.891Z,-1.46
2022-12-20T02:23:01.344Z,-1.46
2022-12-20T02:25:38.865Z,-1.46
2022-12-20T02:28:54.583Z,-1.48
2022-12-20T02:31:49.448Z,-1.49
2022-12-20T02:34:18.575Z,-1.50
2022-12-20T02:36:46.657Z,-1.52
2022-12-20T02:39:17.680Z,-1.54
2022-12-20T02:41:53.216Z,-1.55
2022-12-20T02:44:42.951Z,-1.56
2022-12-20T02:47:17.359Z,-1.56
2022-12-20T02:49:47.624Z,-1.54
2022-12-20T02:52:18.015Z,-1.53
2022-12-20T02:54:46.382Z,-1.54
2022-12-20T02:57:22.545Z,-1.51
2022-12-20T03:00:11.688Z,-1.49
2022-12-20T03:02:59.509Z,-1.46
2022-12-20T03:05:28.516Z,-1.46
2022-12-20T03:07:56.850Z,-1.46
2022-12-20T03:10:26.489Z,-1.47
2022-12-20T03:12:54.563Z,-1.48
2022-12-20T03:15:23.259Z,-1.49
2022-12-20T03:17:52.635Z,-1.50
2022-12-20T03:20:20.698Z,-1.52
2022-12-20T03:22:48.709Z,-1.53
2022-12-20T03:25:16.948Z,-1.53
2022-12-20T03:27:45.030Z,-1.51
2022-12-20T03:30:14.662Z,-1.49
2022-12-20T03:32:43.498Z,-1.45
2022-12-20T03:35:12.401Z,-1.42
2022-12-20T03:37:41.383Z,-1.40
2022-12-20T03:40:10.852Z,-1.38
2022-12-20T03:42:39.159Z,-1.33
2022-12-20T03:45:08.000Z,-1.29
2022-12-20T03:47:36.316Z,-1.25
2022-12-20T03:50:06.656Z,-1.24
2022-12-20T03:52:35.995Z,-1.24
2022-12-20T03:55:06.343Z,-1.26
2022-12-20T03:57:42.112Z,-1.27
2022-12-20T04:00:23.531Z,-1.27
2022-12-20T04:02:52.660Z,-1.26
2022-12-20T04:05:21.413Z,-1.26
2022-12-20T04:07:49.985Z,-1.27
2022-12-20T04:10:18.221Z,-1.28
2022-12-20T04:12:46.476Z,-1.26
2022-12-20T04:15:14.863Z,-1.24
2022-12-20T04:17:44.461Z,-1.22
2022-12-20T04:20:19.388Z,-1.21
2022-12-20T04:22:52.427Z,-1.18
2022-12-20T04:25:21.695Z,-1.18
2022-12-20T04:27:50.145Z,-1.17
2022-12-20T04:30:18.648Z,-1.16
2022-12-20T04:32:46.887Z,-1.16
2022-12-20T04:35:15.611Z,-1.13
2022-12-20T04:37:43.891Z,-1.11
2022-12-20T04:40:12.493Z,-1.10
2022-12-20T04:42:53.636Z,-1.09
2022-12-20T04:45:22.245Z,-1.08
2022-12-20T04:47:50.951Z,-1.08
2022-12-20T04:50:23.555Z,-1.07
2022-12-20T04:53:10.373Z,-1.04
2022-12-20T04:55:40.079Z,-1.00
2022-12-20T04:58:08.935Z,-0.95
2022-12-20T05:00:38.823Z,-0.89
2022-12-20T05:03:19.864Z,-0.86
2022-12-20T05:05:48.581Z,-0.85
2022-12-20T05:08:16.683Z,-0.84
2022-12-20T05:10:45.189Z,-0.83
2022-12-20T05:13:14.188Z,-0.84
2022-12-20T05:15:44.949Z,-0.83
2022-12-20T05:18:13.105Z,-0.84
2022-12-20T05:21:11.054Z,-0.84
2022-12-20T05:23:58.990Z,-0.83
2022-12-20T05:26:31.234Z,-0.49
2022-12-20T05:28:59.256Z,-0.51
2022-12-20T05:31:27.960Z,-0.23
2022-12-20T05:33:56.785Z,-0.47
2022-12-20T05:36:27.199Z,-0.38
2022-12-20T05:39:01.954Z,0.01
2022-12-20T05:41:32.476Z,0.18
2022-12-20T05:44:00.941Z,-0.14
2022-12-20T05:46:30.773Z,-0.06
2022-12-20T05:49:02.286Z,-0.29
2022-12-20T05:51:31.232Z,-0.36
2022-12-20T05:54:03.797Z,-0.39
2022-12-20T05:56:43.611Z,-0.44
2022-12-20T05:59:11.638Z,-0.46
2022-12-20T06:01:40.099Z,-0.46
2022-12-20T06:04:08.570Z,-0.47
2022-12-20T06:06:36.632Z,-0.49
2022-12-20T06:09:04.948Z,-0.49
2022-12-20T06:11:47.669Z,-0.52
2022-12-20T06:14:16.322Z,-0.54
2022-12-20T06:16:49.293Z,-0.55
2022-12-20T06:19:21.652Z,-0.55
2022-12-20T06:21:51.378Z,-0.56
2022-12-20T06:24:25.418Z,-0.55
2022-12-20T06:26:54.099Z,-0.54
2022-12-20T06:29:24.683Z,-0.52
2022-12-20T06:31:57.069Z,-0.51
2022-12-20T06:34:28.397Z,-0.48
2022-12-20T06:36:56.590Z,-0.43
2022-12-20T06:39:27.288Z,-0.37
2022-12-20T06:42:04.393Z,-0.32
2022-12-20T06:44:32.638Z,-0.28
2022-12-20T06:47:01.769Z,-0.24
2022-12-20T06:49:30.525Z,-0.20
2022-12-20T06:51:59.078Z,-0.14
2022-12-20T06:54:35.175Z,-0.11
2022-12-20T06:57:03.560Z,-0.01
2022-12-20T06:59:32.840Z,0.08
2022-12-20T07:02:01.586Z,0.10
2022-12-20T07:04:30.684Z,0.11
2022-12-20T07:06:58.725Z,0.06
2022-12-20T07:09:26.789Z,0.03
2022-12-20T07:11:54.792Z,-0.02
2022-12-20T07:14:22.642Z,-0.05
2022-12-20T07:16:50.685Z,-0.08
2022-12-20T07:19:19.334Z,-0.09
2022-12-20T07:21:47.484Z,-0.12
2022-12-20T07:24:15.496Z,-0.12
2022-12-20T07:26:46.758Z,-0.06
2022-12-20T07:29:15.951Z,0.02
2022-12-20T07:31:44.239Z,0.08
2022-12-20T07:34:12.308Z,0.09
2022-12-20T07:36:40.550Z,0.12
2022-12-20T07:39:09.235Z,0.16
2022-12-20T07:41:37.590Z,0.20
2022-12-20T07:44:06.417Z,0.22
2022-12-20T07:46:35.032Z,0.25
2022-12-20T07:49:03.411Z,0.26
2022-12-20T07:51:36.712Z,0.29
2022-12-20T07:54:11.811Z,0.33
2022-12-20T07:56:46.031Z,0.37
2022-12-20T07:59:17.919Z,0.41
2022-12-20T08:01:47.309Z,0.42
2022-12-20T08:04:23.478Z,0.44
2022-12-20T08:06:55.950Z,0.47
2022-12-20T08:09:27.927Z,0.51
2022-12-20T08:11:57.334Z,0.55
2022-12-20T08:14:25.498Z,0.56
2022-12-20T08:16:53.590Z,0.56
2022-12-20T08:19:26.800Z,0.57
2022-12-20T08:21:58.483Z,0.58
2022-12-20T08:24:26.640Z,0.59
2022-12-20T08:26:55.320Z,0.59
2022-12-20T08:29:23.549Z,0.63
2022-12-20T08:31:52.369Z,0.68
2022-12-20T08:34:20.374Z,0.70
2022-12-20T08:36:48.653Z,0.75
2022-12-20T08:39:16.642Z,0.79
2022-12-20T08:41:44.855Z,0.83
2022-12-20T08:44:13.263Z,0.88
2022-12-20T08:46:41.213Z,0.92
2022-12-20T08:49:09.504Z,0.97
2022-12-20T08:51:37.823Z,1.02
2022-12-20T08:54:05.961Z,1.08
2022-12-20T08:56:34.345Z,1.13
2022-12-20T08:59:02.479Z,1.20
2022-12-20T09:01:33.958Z,1.24
2022-12-20T09:04:02.219Z,1.29
2022-12-20T09:06:30.350Z,1.34
2022-12-20T09:09:00.583Z,1.39
2022-12-20T09:11:29.057Z,1.43
2022-12-20T09:13:58.862Z,1.47
2022-12-20T09:16:29.650Z,1.50
2022-12-20T09:19:04.655Z,1.53
2022-12-20T09:21:34.982Z,1.58
2022-12-20T09:24:03.844Z,1.61
2022-12-20T09:26:32.529Z,1.64
2022-12-20T09:29:02.117Z,1.69
2022-12-20T09:31:30.121Z,1.76
2022-12-20T09:33:59.331Z,1.80
2022-12-20T09:36:30.096Z,1.82
2022-12-20T09:38:58.316Z,1.84
2022-12-20T09:41:31.153Z,1.85
2022-12-20T09:44:04.151Z,1.88
2022-12-20T09:46:33.530Z,2.04
2022-12-20T09:49:02.782Z,2.11
2022-12-20T09:51:55.640Z,2.14
2022-12-20T09:54:58.175Z,2.16
2022-12-20T09:57:59.673Z,2.22
2022-12-20T10:00:28.474Z,2.26
2022-12-20T10:03:06.461Z,2.32
2022-12-20T10:05:51.237Z,2.36
2022-12-20T10:08:55.062Z,2.41
2022-12-20T10:11:54.484Z,2.45
2022-12-20T10:15:04.666Z,2.53
2022-12-20T10:17:35.926Z,2.60
2022-12-20T10:20:30.485Z,2.67
2022-12-20T10:23:18.003Z,2.75
2022-12-20T10:25:47.673Z,2.82
2022-12-20T10:28:17.301Z,2.90
2022-12-20T10:30:45.288Z,2.98
2022-12-20T10:33:23.257Z,3.05
2022-12-20T10:35:51.507Z,3.12
2022-12-20T10:38:20.794Z,3.19
2022-12-20T10:41:20.814Z,3.25
2022-12-20T10:43:59.037Z,3.32
2022-12-20T10:46:41.229Z,3.37
2022-12-20T10:49:28.832Z,3.42
2022-12-20T10:52:14.240Z,3.47
2022-12-20T10:54:45.075Z,3.52
2022-12-20T10:57:16.352Z,3.58
2022-12-20T11:00:06.082Z,3.64
2022-12-20T11:02:41.305Z,3.72
2022-12-20T11:05:14.533Z,3.80
2022-12-20T11:08:24.643Z,3.85
2022-12-20T11:10:40.386Z,3.92
2022-12-20T11:13:20.727Z,3.98
2022-12-20T11:15:51.259Z,4.04
2022-12-20T11:18:54.855Z,4.10
2022-12-20T11:21:42.993Z,4.17
2022-12-20T11:24:40.492Z,4.23
2022-12-20T11:27:30.050Z,4.29
2022-12-20T11:30:21.571Z,4.34
2022-12-20T11:33:05.326Z,4.37
2022-12-20T11:35:52.820Z,4.41
2022-12-20T11:38:30.752Z,4.46
2022-12-20T11:41:28.474Z,4.51
2022-12-20T11:44:27.811Z,4.57
2022-12-20T11:47:14.753Z,4.62
2022-12-20T11:49:55.271Z,4.65
2022-12-20T11:52:39.156Z,4.67
2022-12-20T11:55:13.144Z,4.68
2022-12-20T12:00:54.311Z,4.73
2022-12-20T12:03:30.369Z,4.74
2022-12-20T12:06:10.675Z,4.74
2022-12-20T12:08:38.612Z,4.73
2022-12-20T12:11:55.748Z,4.71
2022-12-20T12:14:06.252Z,4.70
2022-12-20T12:16:38.263Z,4.71
2022-12-20T12:19:11.341Z,4.70
2022-12-20T12:21:56.716Z,4.72
2022-12-20T12:24:46.060Z,4.75
2022-12-20T12:27:25.284Z,4.79
2022-12-20T12:29:56.484Z,4.83
2022-12-20T12:32:44.543Z,4.88
2022-12-20T12:35:24.033Z,4.91
2022-12-20T12:38:09.573Z,4.94
2022-12-20T12:41:03.091Z,4.96
2022-12-20T12:43:49.468Z,5.00
2022-12-20T12:46:32.234Z,5.04
2022-12-20T12:49:04.349Z,5.04
2022-12-20T12:51:37.706Z,5.05
2022-12-20T12:54:35.289Z,5.04
2022-12-20T12:57:11.824Z,5.03
2022-12-20T12:59:39.991Z,4.99
2022-12-20T13:02:14.105Z,4.97
2022-12-20T13:05:25.966Z,4.94
2022-12-20T13:07:55.341Z,4.93
2022-12-20T13:10:29.989Z,4.92
2022-12-20T13:13:02.708Z,4.88
2022-12-20T13:15:32.696Z,4.85
2022-12-20T13:18:11.028Z,4.86
2022-12-20T13:20:39.787Z,4.84
2022-12-20T13:23:11.701Z,4.84
2022-12-20T13:25:54.340Z,4.86
2022-12-20T13:28:25.233Z,4.86
2022-12-20T13:31:02.540Z,4.85
2022-12-20T13:33:42.890Z,4.81
2022-12-20T13:36:33.017Z,4.77
2022-12-20T13:39:22.374Z,4.73
2022-12-20T13:42:20.956Z,4.70
2022-12-20T13:44:53.121Z,4.70
2022-12-20T13:47:33.459Z,4.69
2022-12-20T13:50:18.648Z,4.65
2022-12-20T13:52:46.879Z,4.62
2022-12-20T13:55:27.867Z,4.61
2022-12-20T13:57:56.134Z,4.58
2022-12-20T14:00:26.283Z,4.56
2022-12-20T14:02:55.014Z,4.56
2022-12-20T14:05:31.882Z,4.55
2022-12-20T14:08:03.786Z,4.54
2022-12-20T14:10:33.599Z,4.55
2022-12-20T14:13:03.045Z,4.55
2022-12-20T14:15:34.148Z,4.51
2022-12-20T14:18:16.101Z,4.48
2022-12-20T14:20:45.314Z,4.48
2022-12-20T14:23:21.205Z,4.49
2022-12-20T14:25:52.450Z,4.48
2022-12-20T14:28:36.235Z,4.48
2022-12-20T14:31:06.396Z,4.45
2022-12-20T14:33:39.825Z,4.43
2022-12-20T14:36:17.675Z,4.40
2022-12-20T14:38:50.999Z,4.38
2022-12-20T14:41:39.846Z,4.34
2022-12-20T14:44:08.104Z,4.30
2022-12-20T14:46:37.189Z,4.27
2022-12-20T14:49:22.418Z,4.23
2022-12-20T14:51:51.904Z,4.20
2022-12-20T14:54:56.845Z,4.17
2022-12-20T14:57:20.392Z,4.13
2022-12-20T15:00:17.949Z,4.11
2022-12-20T15:02:46.322Z,4.09
2022-12-20T15:05:33.532Z,4.08
2022-12-20T15:08:23.366Z,4.07
2022-12-20T15:11:17.957Z,4.02
2022-12-20T15:13:54.740Z,3.95
2022-12-20T15:16:25.072Z,3.88
2022-12-20T15:18:58.248Z,3.83
2022-12-20T15:21:36.258Z,3.78
2022-12-20T15:24:09.818Z,3.75
2022-12-20T15:26:39.031Z,3.90
2022-12-20T15:29:07.478Z,3.88
2022-12-20T15:31:36.893Z,3.81
2022-12-20T15:34:32.725Z,3.75
2022-12-20T15:37:02.727Z,3.65
2022-12-20T15:39:32.355Z,3.59
2022-12-20T15:42:04.091Z,3.52
2022-12-20T15:44:33.795Z,3.45
2022-12-20T15:47:01.839Z,3.40
2022-12-20T15:49:32.045Z,3.36
2022-12-20T15:52:00.529Z,3.33
2022-12-20T15:54:32.278Z,3.31
2022-12-20T15:57:03.315Z,3.29
2022-12-20T15:59:58.823Z,3.24
2022-12-20T16:02:24.397Z,3.18
2022-12-20T16:04:53.911Z,3.15
2022-12-20T16:07:22.464Z,3.13
2022-12-20T16:09:50.651Z,3.08
2022-12-20T16:12:24.036Z,3.04
2022-12-20T16:14:52.265Z,3.00
2022-12-20T16:17:20.283Z,2.97
2022-12-20T16:19:48.537Z,2.96
2022-12-20T16:22:22.703Z,2.94
2022-12-20T16:24:52.212Z,2.93
2022-12-20T16:27:20.769Z,2.91
2022-12-20T16:29:48.988Z,2.92
2022-12-20T16:32:19.911Z,2.93
2022-12-20T16:34:52.434Z,2.91
2022-12-20T16:37:20.930Z,2.89
2022-12-20T16:39:49.046Z,2.87
2022-12-20T16:42:22.186Z,2.84
2022-12-20T16:44:52.429Z,2.83
2022-12-20T16:47:20.561Z,2.79
2022-12-20T16:49:52.932Z,2.79
2022-12-20T16:52:23.308Z,2.79
2022-12-20T16:54:51.637Z,2.79
2022-12-20T16:57:21.314Z,2.78
2022-12-20T16:59:49.661Z,2.77
2022-12-20T17:02:27.314Z,2.74
2022-12-20T17:04:56.438Z,2.73
2022-12-20T17:07:25.180Z,2.76
2022-12-20T17:09:54.034Z,2.79
2022-12-20T17:12:22.839Z,2.80
2022-12-20T17:14:50.935Z,2.78
2022-12-20T17:17:19.243Z,2.75
2022-12-20T17:19:47.523Z,2.75
2022-12-20T17:25:04.212Z,2.68
2022-12-20T17:27:32.462Z,2.65
2022-12-20T17:30:00.791Z,2.61
2022-12-20T17:32:29.016Z,2.58
2022-12-20T17:34:58.712Z,2.57
2022-12-20T17:37:27.928Z,2.57
2022-12-20T17:39:55.956Z,2.56
2022-12-20T17:42:28.941Z,2.54
2022-12-20T17:44:59.027Z,2.55
2022-12-20T17:47:26.923Z,2.56
2022-12-20T17:49:54.882Z,2.59
2022-12-20T17:52:23.162Z,2.57
2022-12-20T17:54:50.981Z,2.53
2022-12-20T17:57:18.858Z,2.49
2022-12-20T17:59:50.372Z,2.48
2022-12-20T18:02:24.914Z,2.47
2022-12-20T18:04:54.316Z,2.45
2022-12-20T18:07:22.230Z,2.44
2022-12-20T18:09:50.942Z,2.45
2022-12-20T18:12:18.882Z,2.44
2022-12-20T18:14:49.200Z,2.45
2022-12-20T18:17:17.781Z,2.54
2022-12-20T18:19:45.838Z,2.54
2022-12-20T18:22:15.005Z,2.50
2022-12-20T18:24:43.175Z,2.48
2022-12-20T18:27:11.331Z,2.46
2022-12-20T18:29:42.887Z,2.47
2022-12-20T18:32:10.952Z,2.46
2022-12-20T18:34:39.368Z,2.44
2022-12-20T18:37:07.725Z,2.42
2022-12-20T18:39:36.102Z,2.39
2022-12-20T18:42:04.108Z,2.36
2022-12-20T18:44:35.738Z,2.32
2022-12-20T18:47:04.121Z,2.28
2022-12-20T18:49:32.239Z,2.23
2022-12-20T18:52:00.375Z,2.18
2022-12-20T18:54:30.286Z,2.11
2022-12-20T18:56:59.330Z,2.03
2022-12-20T18:59:28.075Z,1.97
2022-12-20T19:01:56.211Z,1.95
2022-12-20T19:04:25.238Z,1.94
2022-12-20T19:06:53.718Z,1.95
2022-12-20T19:09:23.388Z,1.93
2022-12-20T19:11:57.149Z,1.90
2022-12-20T19:14:26.263Z,1.89
2022-12-20T19:16:54.235Z,1.88
2022-12-20T19:19:22.301Z,1.84
2022-12-20T19:21:50.629Z,1.81
2022-12-20T19:24:18.904Z,1.77
2022-12-20T19:26:46.870Z,1.70
2022-12-20T19:29:15.058Z,1.65
2022-12-20T19:31:43.195Z,1.59
2022-12-20T19:34:13.369Z,1.54
2022-12-20T19:36:45.046Z,1.50
2022-12-20T19:39:16.528Z,1.46
2022-12-20T19:41:54.880Z,1.45
2022-12-20T19:44:28.475Z,1.45
2022-12-20T19:46:56.578Z,1.45
2022-12-20T19:49:24.686Z,1.44
2022-12-20T19:51:52.986Z,1.42
2022-12-20T19:54:20.877Z,1.39
2022-12-20T19:56:48.879Z,1.38
2022-12-20T19:59:16.917Z,1.38
2022-12-20T20:01:45.217Z,1.37
2022-12-20T20:04:13.327Z,1.38
2022-12-20T20:06:41.437Z,1.37
2022-12-20T20:09:09.503Z,1.35
2022-12-20T20:11:37.729Z,1.34
2022-12-20T20:14:09.416Z,1.32
2022-12-20T20:16:37.730Z,1.29
2022-12-20T20:19:06.026Z,1.26
2022-12-20T20:21:36.638Z,1.25
2022-12-20T20:24:05.203Z,1.23
2022-12-20T20:26:33.165Z,1.27
2022-12-20T20:29:02.368Z,1.30
2022-12-20T20:31:30.852Z,1.32
2022-12-20T20:33:58.938Z,1.35
2022-12-20T20:36:26.975Z,1.35
2022-12-20T20:38:55.185Z,1.36
2022-12-20T20:41:23.255Z,1.37
2022-12-20T20:43:51.229Z,1.36
2022-12-20T20:46:19.672Z,1.30
2022-12-20T20:48:48.120Z,1.26
2022-12-20T20:51:16.536Z,1.24
2022-12-20T20:53:44.814Z,1.21
2022-12-20T20:56:12.786Z,1.17
2022-12-20T20:58:40.740Z,1.13
2022-12-20T21:01:10.525Z,1.11
2022-12-20T21:03:40.337Z,1.13
2022-12-20T21:08:57.530Z,1.16
2022-12-20T21:11:25.964Z,1.16
2022-12-20T21:13:54.174Z,1.18
2022-12-20T21:16:22.814Z,1.19
2022-12-20T21:19:00.110Z,1.17
2022-12-20T21:21:28.499Z,1.17
2022-12-20T21:23:56.864Z,1.19
2022-12-20T21:26:27.300Z,1.17
2022-12-20T21:28:59.914Z,1.12
2022-12-20T21:31:28.608Z,1.07
2022-12-20T21:33:57.491Z,1.05
2022-12-20T21:36:25.932Z,1.06
2022-12-20T21:38:57.258Z,1.06
2022-12-20T21:41:27.772Z,1.01
2022-12-20T21:43:58.395Z,1.01
2022-12-20T21:46:28.546Z,1.04
2022-12-20T21:48:56.997Z,1.06
2022-12-20T21:51:27.402Z,1.08
2022-12-20T21:54:03.351Z,1.13
2022-12-20T21:56:34.269Z,1.15
2022-12-20T21:59:04.253Z,1.17
2022-12-20T22:01:32.422Z,1.16
2022-12-20T22:04:06.792Z,1.14
2022-12-20T22:06:35.365Z,1.12
2022-12-20T22:09:09.086Z,1.09
2022-12-20T22:11:37.989Z,1.06
2022-12-20T22:14:06.785Z,1.05
2022-12-20T22:16:35.308Z,1.04
2022-12-20T22:19:04.038Z,1.03
2022-12-20T22:21:34.111Z,1.01
2022-12-20T22:24:03.112Z,1.00
2022-12-20T22:26:32.591Z,0.99
2022-12-20T22:29:04.458Z,1.01
2022-12-20T22:31:33.626Z,1.05
2022-12-20T22:34:02.118Z,1.08
2022-12-20T22:36:30.346Z,1.10
2022-12-20T22:38:58.493Z,1.11
2022-12-20T22:41:32.622Z,1.11
2022-12-20T22:44:01.790Z,1.11
2022-12-20T22:46:29.954Z,1.11
2022-12-20T22:48:59.195Z,1.08
2022-12-20T22:51:31.038Z,1.03
2022-12-20T22:54:00.213Z,0.99
2022-12-20T22:56:28.621Z,0.97
2022-12-20T22:58:56.514Z,0.98
2022-12-20T23:01:25.203Z,0.99
2022-12-20T23:03:53.672Z,0.96
2022-12-20T23:06:21.927Z,0.96
2022-12-20T23:08:50.149Z,0.95
2022-12-20T23:11:45.158Z,0.96
2022-12-20T23:14:36.343Z,0.95
2022-12-20T23:17:06.212Z,0.97
2022-12-20T23:19:53.693Z,0.99
2022-12-20T23:22:39.420Z,0.98
2022-12-20T23:25:10.748Z,0.94
2022-12-20T23:27:39.981Z,0.94
2022-12-20T23:30:12.077Z,0.93
2022-12-20T23:32:44.844Z,0.91
2022-12-20T23:35:18.438Z,0.87
2022-12-20T23:37:47.145Z,0.82
2022-12-20T23:40:16.593Z,0.78
2022-12-20T23:42:45.240Z,0.74
2022-12-20T23:45:13.924Z,0.71
2022-12-20T23:47:41.811Z,0.67
2022-12-20T23:50:10.191Z,0.65
2022-12-20T23:52:38.475Z,0.64
2022-12-20T23:55:07.065Z,0.67
2022-12-20T23:57:35.065Z,0.69
